createdAt,value
2022-12-08T00:10:47.867Z,97560
2022-12-08T00:22:21.203Z,97540
2022-12-08T00:34:21.309Z,97530
2022-12-08T00:46:21.229Z,97530
2022-12-08T00:58:21.253Z,97500
2022-12-08T01:10:21.308Z,97510
2022-12-08T01:22:21.199Z,97520
2022-12-08T01:34:21.195Z,97500
2022-12-08T01:46:21.376Z,97500
2022-12-08T01:58:21.313Z,97500
2022-12-08T02:10:21.195Z,97490
2022-12-08T02:22:21.194Z,97470
2022-12-08T02:34:21.313Z,97470
2022-12-08T02:46:21.286Z,97450
2022-12-08T02:58:21.194Z,97440
2022-12-08T03:10:21.280Z,97420
2022-12-08T03:22:21.208Z,97420
2022-12-08T03:34:21.201Z,97400
2022-12-08T03:58:21.196Z,97380
2022-12-08T04:10:21.197Z,97370
2022-12-08T04:22:21.196Z,97350
2022-12-08T04:34:21.212Z,97330
2022-12-08T04:46:21.355Z,97320
2022-12-08T04:58:21.313Z,97330
2022-12-08T05:10:21.295Z,97330
2022-12-08T05:22:21.195Z,97320
2022-12-08T05:34:21.301Z,97320
2022-12-08T05:46:21.478Z,97300
2022-12-08T05:58:21.316Z,97300
2022-12-08T06:10:21.247Z,97300
2022-12-08T06:22:21.190Z,97290
2022-12-08T06:34:21.262Z,97290
2022-12-08T06:46:21.372Z,97300
2022-12-08T06:58:21.259Z,97300
2022-12-08T07:10:21.293Z,97300
2022-12-08T07:22:21.199Z,97300
2022-12-08T07:34:21.312Z,97310
2022-12-08T07:46:21.347Z,97300
2022-12-08T07:58:21.261Z,97300
2022-12-08T08:10:21.197Z,97300
2022-12-08T08:22:21.181Z,97300
2022-12-08T08:34:21.286Z,97310
2022-12-08T08:46:21.250Z,97320
2022-12-08T08:58:21.291Z,97310
2022-12-08T09:10:21.301Z,97310
2022-12-08T09:22:21.275Z,97330
2022-12-08T09:34:21.310Z,97320
2022-12-08T09:46:21.335Z,97320
2022-12-08T09:58:21.281Z,97320
2022-12-08T10:10:21.202Z,97320
2022-12-08T10:22:21.191Z,97300
2022-12-08T10:34:21.217Z,97280
2022-12-08T10:46:21.408Z,97280
2022-12-08T10:58:21.348Z,97270
2022-12-08T11:10:21.309Z,97260
2022-12-08T11:22:21.312Z,97260
2022-12-08T11:34:21.197Z,97260
2022-12-08T11:46:21.278Z,97240
2022-12-08T11:58:21.396Z,97230
2022-12-08T12:10:21.300Z,97220
2022-12-08T12:22:21.319Z,97220
2022-12-08T12:34:21.236Z,97220
2022-12-08T12:46:21.320Z,97200
2022-12-08T12:58:21.195Z,97200
2022-12-08T13:10:21.274Z,97180
2022-12-08T13:22:21.200Z,97190
2022-12-08T13:34:21.303Z,97190
2022-12-08T13:47:02.794Z,97170
2022-12-08T13:58:21.274Z,97170
2022-12-08T14:10:21.328Z,97170
2022-12-08T14:22:21.205Z,97170
2022-12-08T14:34:21.309Z,97180
2022-12-08T14:46:21.309Z,97180
2022-12-08T14:58:21.300Z,97180
2022-12-08T15:10:21.311Z,97180
2022-12-08T15:22:21.241Z,97200
2022-12-08T15:34:21.331Z,97180
2022-12-08T15:46:21.252Z,97180
2022-12-08T15:58:52.276Z,97170
2022-12-08T16:10:21.354Z,97180
2022-12-08T16:34:21.313Z,97170
2022-12-08T16:46:21.358Z,97170
2022-12-08T16:58:21.290Z,97180
2022-12-08T17:20:02.363Z,97150
2022-12-08T17:32:02.333Z,97150
2022-12-08T17:44:02.089Z,97150
2022-12-08T17:56:02.175Z,97150
2022-12-08T18:08:02.152Z,97150
2022-12-08T18:20:02.428Z,97150
2022-12-08T18:32:02.097Z,97140
2022-12-08T18:44:02.207Z,97150
2022-12-08T18:56:02.158Z,97140
2022-12-08T19:08:02.254Z,97140
2022-12-08T19:20:02.093Z,97140
2022-12-08T19:32:02.188Z,97140
2022-12-08T19:44:02.085Z,97140
2022-12-08T19:56:02.180Z,97140
2022-12-08T20:08:02.206Z,97140
2022-12-08T20:20:06.815Z,97140
2022-12-08T20:32:02.359Z,97130
2022-12-08T20:44:02.076Z,97140
2022-12-08T20:56:02.289Z,97150
2022-12-08T21:08:02.362Z,97140
2022-12-08T21:20:02.207Z,97140
2022-12-08T21:32:02.232Z,97140
2022-12-08T21:44:02.162Z,97150
2022-12-08T21:56:02.287Z,97140
2022-12-08T22:08:02.250Z,97130
2022-12-08T22:20:02.496Z,97130
2022-12-08T22:32:02.269Z,97130
2022-12-08T22:44:02.278Z,97130
2022-12-08T22:56:02.197Z,97120
2022-12-08T23:08:02.317Z,97110
2022-12-08T23:20:02.323Z,97110
2022-12-08T23:32:02.422Z,97110
2022-12-08T23:44:02.092Z,97100
2022-12-08T23:56:02.355Z,97090
